createdAt,value
2018-07-13T00:02:12.482Z,26.50
2018-07-13T00:04:40.761Z,26.07
2018-07-13T00:07:09.011Z,23.67
2018-07-13T00:09:41.267Z,25.53
2018-07-13T00:12:09.525Z,23.83
2018-07-13T00:14:37.946Z,25.47
2018-07-13T00:17:06.276Z,23.97
2018-07-13T00:23:06.039Z,23.60
2018-07-13T00:25:35.546Z,23.90
2018-07-13T00:28:03.796Z,20.20
2018-07-13T00:30:32.073Z,20.97
2018-07-13T00:33:00.318Z,21.77
2018-07-13T00:35:28.722Z,20.40
2018-07-13T00:37:56.965Z,23.00
2018-07-13T00:40:25.506Z,23.57
2018-07-13T00:42:53.937Z,24.13
2018-07-13T00:45:22.237Z,21.80
2018-07-13T00:47:50.570Z,23.40
2018-07-13T00:50:19.992Z,22.67
2018-07-13T00:52:48.557Z,23.00
2018-07-13T00:55:16.872Z,22.60
2018-07-13T00:57:45.129Z,25.70
2018-07-13T01:00:13.373Z,22.60
2018-07-13T01:02:41.754Z,21.87
2018-07-13T01:05:10.018Z,22.17
2018-07-13T01:07:38.633Z,22.40
2018-07-13T01:10:07.965Z,23.13
2018-07-13T01:12:36.258Z,24.63
2018-07-13T01:15:06.576Z,23.07
2018-07-13T01:17:34.868Z,22.53
2018-07-13T01:20:03.137Z,23.23
2018-07-13T01:22:31.457Z,22.53
2018-07-13T01:24:59.709Z,21.43
2018-07-13T01:27:28.797Z,21.27
2018-07-13T01:29:57.913Z,21.10
2018-07-13T01:32:26.381Z,21.80
2018-07-13T01:34:54.628Z,21.37
2018-07-13T01:37:22.920Z,20.70
2018-07-13T01:39:51.175Z,20.90
2018-07-13T01:42:19.468Z,18.47
2018-07-13T01:44:47.720Z,18.87
2018-07-13T01:47:16.001Z,19.87
2018-07-13T01:49:44.291Z,18.63
2018-07-13T01:52:12.800Z,20.83
2018-07-13T01:54:41.061Z,19.57
2018-07-13T01:57:10.226Z,18.77
2018-07-13T01:59:38.478Z,18.80
2018-07-13T02:02:06.753Z,21.00
2018-07-13T02:04:35.057Z,20.87
2018-07-13T02:07:04.317Z,19.47
2018-07-13T02:09:32.631Z,21.53
2018-07-13T02:12:00.861Z,22.60
2018-07-13T02:14:29.133Z,20.77
2018-07-13T02:16:57.376Z,21.07
2018-07-13T02:19:25.685Z,21.37
2018-07-13T02:21:54.084Z,19.37
2018-07-13T02:24:22.385Z,20.47
2018-07-13T02:26:51.121Z,19.00
2018-07-13T02:29:22.654Z,18.70
2018-07-13T02:31:50.984Z,20.77
2018-07-13T02:34:19.256Z,19.03
2018-07-13T02:36:47.517Z,21.03
2018-07-13T02:39:15.785Z,22.20
2018-07-13T02:41:44.046Z,22.13
2018-07-13T02:44:12.329Z,21.87
2018-07-13T02:46:40.581Z,24.50
2018-07-13T02:49:08.821Z,23.10
2018-07-13T02:51:38.145Z,23.90
2018-07-13T02:54:06.501Z,22.37
2018-07-13T02:56:34.786Z,23.37
2018-07-13T02:59:03.057Z,25.23
2018-07-13T03:01:31.345Z,21.90
2018-07-13T03:04:00.613Z,23.40
2018-07-13T03:06:28.919Z,23.33
2018-07-13T03:08:58.440Z,22.43
2018-07-13T03:11:26.857Z,22.50
2018-07-13T03:13:55.138Z,21.70
2018-07-13T03:16:23.457Z,22.43
2018-07-13T03:18:51.705Z,20.67
2018-07-13T03:21:20.109Z,22.30
2018-07-13T03:23:48.476Z,21.23
2018-07-13T03:26:16.937Z,19.67
2018-07-13T03:28:45.217Z,21.17
2018-07-13T03:31:13.525Z,20.50
2018-07-13T03:33:41.890Z,20.53
2018-07-13T03:36:10.287Z,21.77
2018-07-13T03:38:38.638Z,21.70
2018-07-13T03:41:07.169Z,20.00
2018-07-13T03:43:35.497Z,22.57
2018-07-13T03:46:03.782Z,20.77
2018-07-13T03:48:32.214Z,20.33
2018-07-13T03:51:00.518Z,19.77
2018-07-13T03:53:28.925Z,20.83
2018-07-13T03:55:58.215Z,19.77
2018-07-13T03:58:26.621Z,19.50
2018-07-13T04:00:54.981Z,20.60
2018-07-13T04:03:23.389Z,20.63
2018-07-13T04:05:51.709Z,18.33
2018-07-13T04:08:20.005Z,19.47
2018-07-13T04:10:48.365Z,18.83
2018-07-13T04:13:16.777Z,18.90
2018-07-13T04:15:45.215Z,20.23
2018-07-13T04:18:17.349Z,20.20
2018-07-13T04:20:45.685Z,18.83
2018-07-13T04:23:14.094Z,20.07
2018-07-13T04:25:42.659Z,20.10
2018-07-13T04:28:11.045Z,18.93
2018-07-13T04:30:39.421Z,21.53
2018-07-13T04:33:07.813Z,23.00
2018-07-13T04:35:36.145Z,18.77
2018-07-13T04:38:05.470Z,20.30
2018-07-13T04:40:33.842Z,20.87
2018-07-13T04:43:02.245Z,21.20
2018-07-13T04:45:30.617Z,21.27
2018-07-13T04:47:59.048Z,21.20
2018-07-13T04:50:27.411Z,18.43
2018-07-13T04:52:55.945Z,18.83
2018-07-13T04:55:24.979Z,19.00
2018-07-13T04:57:53.422Z,18.30
2018-07-13T05:00:22.033Z,18.70
2018-07-13T05:02:51.817Z,18.20
2018-07-13T05:05:21.206Z,18.33
2018-07-13T05:07:49.682Z,18.63
2018-07-13T05:10:19.621Z,16.60
2018-07-13T05:12:49.006Z,18.20
2018-07-13T05:15:17.296Z,18.93
2018-07-13T05:17:45.731Z,18.37
2018-07-13T05:20:14.023Z,17.87
2018-07-13T05:22:42.745Z,16.03
2018-07-13T05:25:12.037Z,16.43
2018-07-13T05:27:40.797Z,15.63
2018-07-13T05:30:09.178Z,14.70
2018-07-13T05:32:37.677Z,14.70
2018-07-13T05:35:07.015Z,15.17
2018-07-13T05:37:35.302Z,16.45
2018-07-13T05:40:04.805Z,15.13
2018-07-13T05:42:33.646Z,14.07
2018-07-13T05:45:01.918Z,13.83
2018-07-13T05:47:30.430Z,15.00
2018-07-13T05:49:58.713Z,11.90
2018-07-13T05:52:27.369Z,13.77
2018-07-13T05:54:55.669Z,14.10
2018-07-13T05:57:23.982Z,13.00
2018-07-13T05:59:52.285Z,13.73
2018-07-13T06:02:20.601Z,13.80
2018-07-13T06:04:48.881Z,11.40
2018-07-13T06:07:17.177Z,12.03
2018-07-13T06:09:45.507Z,11.90
2018-07-13T06:12:13.772Z,11.20
2018-07-13T06:14:42.033Z,10.70
2018-07-13T06:17:10.328Z,11.00
2018-07-13T06:19:38.593Z,11.40
2018-07-13T06:22:06.921Z,10.17
2018-07-13T06:24:35.205Z,10.03
2018-07-13T06:27:04.561Z,10.20
2018-07-13T06:29:32.877Z,11.03
2018-07-13T06:32:01.197Z,10.03
2018-07-13T06:34:29.507Z,9.60
2018-07-13T06:36:57.781Z,10.67
2018-07-13T06:39:26.077Z,11.37
2018-07-13T06:41:55.457Z,8.83
2018-07-13T06:44:24.761Z,9.53
2018-07-13T06:46:53.042Z,8.97
2018-07-13T06:49:21.338Z,9.53
2018-07-13T06:51:49.609Z,8.80
2018-07-13T06:54:17.957Z,9.53
2018-07-13T06:56:46.281Z,8.77
2018-07-13T06:59:15.778Z,10.03
2018-07-13T07:01:44.746Z,8.90
2018-07-13T07:04:23.174Z,8.20
2018-07-13T07:06:51.597Z,8.10
2018-07-13T07:09:21.341Z,7.90
2018-07-13T07:13:04.595Z,7.03
2018-07-13T07:15:32.934Z,8.23
2018-07-13T07:18:01.186Z,8.83
2018-07-13T07:20:29.493Z,8.90
2018-07-13T07:22:58.790Z,8.87
2018-07-13T07:25:27.325Z,8.63
2018-07-13T07:27:55.596Z,6.93
2018-07-13T07:30:23.922Z,9.10
2018-07-13T07:32:52.165Z,7.80
2018-07-13T07:35:20.497Z,8.47
2018-07-13T07:37:49.783Z,7.47
2018-07-13T07:40:18.086Z,7.60
2018-07-13T07:42:46.377Z,7.50
2018-07-13T07:45:14.730Z,9.10
2018-07-13T07:47:42.982Z,8.80
2018-07-13T07:50:11.264Z,9.20
2018-07-13T07:52:39.526Z,7.33
2018-07-13T07:55:08.810Z,8.03
2018-07-13T07:57:37.105Z,9.40
2018-07-13T08:00:05.461Z,8.87
2018-07-13T08:02:33.725Z,8.50
2018-07-13T08:05:01.973Z,9.17
2018-07-13T08:07:30.310Z,9.67
2018-07-13T08:09:58.545Z,8.10
2018-07-13T08:12:26.836Z,9.43
2018-07-13T08:14:55.373Z,7.30
2018-07-13T08:17:23.742Z,9.47
2018-07-13T08:19:52.025Z,8.97
2018-07-13T08:22:24.662Z,8.97
2018-07-13T08:24:56.253Z,8.10
2018-07-13T08:27:27.428Z,9.13
2018-07-13T08:29:56.904Z,10.70
2018-07-13T08:32:25.365Z,9.57
2018-07-13T08:34:53.606Z,9.00
2018-07-13T08:37:21.880Z,8.80
2018-07-13T08:39:50.129Z,9.03
2018-07-13T08:42:18.453Z,8.50
2018-07-13T08:44:46.729Z,8.27
2018-07-13T08:47:15.014Z,9.80
2018-07-13T08:49:43.301Z,7.60
2018-07-13T08:52:11.597Z,8.77
2018-07-13T08:54:39.993Z,8.23
2018-07-13T08:57:08.300Z,8.50
2018-07-13T08:59:36.768Z,8.73
2018-07-13T09:02:05.045Z,8.37
2018-07-13T09:04:33.501Z,7.80
2018-07-13T09:07:03.757Z,8.17
2018-07-13T09:09:35.581Z,7.80
2018-07-13T09:12:03.893Z,8.63
2018-07-13T09:14:32.168Z,9.27
2018-07-13T09:17:00.476Z,9.47
2018-07-13T09:19:28.781Z,7.30
2018-07-13T09:21:57.209Z,8.53
2018-07-13T09:24:26.574Z,8.60
2018-07-13T09:26:54.828Z,7.37
2018-07-13T09:29:23.085Z,8.53
2018-07-13T09:31:51.369Z,8.20
2018-07-13T09:34:21.684Z,8.30
2018-07-13T09:36:49.988Z,7.70
2018-07-13T09:39:19.236Z,8.73
2018-07-13T09:41:47.578Z,8.20
2018-07-13T09:44:15.833Z,8.28
2018-07-13T09:46:44.205Z,8.93
2018-07-13T09:49:12.409Z,8.70
2018-07-13T09:51:40.707Z,8.80
2018-07-13T09:54:09.193Z,6.90
2018-07-13T09:56:37.367Z,7.83
2018-07-13T09:59:05.866Z,8.43
2018-07-13T10:01:34.192Z,7.80
2018-07-13T10:04:03.557Z,8.30
2018-07-13T10:06:32.960Z,8.10
2018-07-13T10:09:01.232Z,7.10
2018-07-13T10:11:29.537Z,7.70
2018-07-13T10:13:57.873Z,7.70
2018-07-13T10:16:27.189Z,8.17
2018-07-13T10:18:55.484Z,8.23
2018-07-13T10:21:23.762Z,8.73
2018-07-13T10:23:52.537Z,8.93
2018-07-13T10:26:38.869Z,7.87
2018-07-13T10:29:19.356Z,7.53
2018-07-13T10:31:48.071Z,6.87
2018-07-13T10:34:18.013Z,9.17
2018-07-13T10:36:55.789Z,7.80
2018-07-13T10:39:24.325Z,6.10
2018-07-13T10:41:52.889Z,5.73
2018-07-13T10:44:21.201Z,6.87
2018-07-13T10:46:49.465Z,5.93
2018-07-13T10:49:17.769Z,6.60
2018-07-13T10:51:46.029Z,6.73
2018-07-13T10:54:14.361Z,6.67
2018-07-13T10:56:42.629Z,8.10
2018-07-13T10:59:11.000Z,6.17
2018-07-13T11:01:39.501Z,5.10
2018-07-13T11:04:08.388Z,5.70
2018-07-13T11:06:36.633Z,7.30
2018-07-13T11:09:06.560Z,6.97
2018-07-13T11:11:35.085Z,7.43
2018-07-13T11:14:03.412Z,6.00
2018-07-13T11:16:31.601Z,5.30
2018-07-13T11:18:59.884Z,6.80
2018-07-13T11:21:29.413Z,6.17
2018-07-13T11:23:57.664Z,6.23
2018-07-13T11:26:26.169Z,6.30
2018-07-13T11:28:54.838Z,7.60
2018-07-13T11:31:23.104Z,7.50
2018-07-13T11:33:52.375Z,8.80
2018-07-13T11:36:21.694Z,8.70
2018-07-13T11:38:49.953Z,8.17
2018-07-13T11:41:18.237Z,6.40
2018-07-13T11:43:46.493Z,7.37
2018-07-13T11:46:14.947Z,7.00
2018-07-13T11:48:43.181Z,7.50
2018-07-13T11:51:12.624Z,6.33
2018-07-13T11:53:41.314Z,6.10
2018-07-13T11:56:09.745Z,8.37
2018-07-13T11:58:38.300Z,7.13
2018-07-13T12:01:08.238Z,7.70
2018-07-13T12:03:36.538Z,6.93
2018-07-13T12:06:05.331Z,6.73
2018-07-13T12:08:33.633Z,5.93
2018-07-13T12:11:01.870Z,5.23
2018-07-13T12:13:30.141Z,5.37
2018-07-13T12:15:58.386Z,5.90
2018-07-13T12:18:26.832Z,4.67
2018-07-13T12:20:55.161Z,5.60
2018-07-13T12:23:23.569Z,6.20
2018-07-13T12:25:53.026Z,6.20
2018-07-13T12:28:21.693Z,4.63
2018-07-13T12:30:50.089Z,5.17
2018-07-13T12:33:18.417Z,4.63
2018-07-13T12:35:46.689Z,5.23
2018-07-13T12:38:14.993Z,4.57
2018-07-13T12:40:43.258Z,5.10
2018-07-13T12:43:11.558Z,4.30
2018-07-13T12:45:39.818Z,5.40
2018-07-13T12:48:08.090Z,4.70
2018-07-13T12:50:36.341Z,4.80
2018-07-13T12:53:05.649Z,5.87
2018-07-13T12:55:33.917Z,4.80
2018-07-13T12:58:02.203Z,4.80
2018-07-13T13:00:30.541Z,4.40
2018-07-13T13:02:58.797Z,4.80
2018-07-13T13:05:27.103Z,4.63
2018-07-13T13:07:55.378Z,5.00
2018-07-13T13:10:24.684Z,3.70
2018-07-13T13:12:53.281Z,4.47
2018-07-13T13:15:21.613Z,5.87
2018-07-13T13:17:49.883Z,5.00
2018-07-13T13:20:18.157Z,5.43
2018-07-13T13:22:46.401Z,5.50
2018-07-13T13:25:14.705Z,4.93
2018-07-13T13:27:43.932Z,4.40
2018-07-13T13:30:12.205Z,5.13
2018-07-13T13:32:40.445Z,6.40
2018-07-13T13:35:08.746Z,6.73
2018-07-13T13:37:37.017Z,5.80
2018-07-13T13:40:05.322Z,5.00
2018-07-13T13:42:33.578Z,5.10
2018-07-13T13:45:01.857Z,4.87
2018-07-13T13:47:30.133Z,5.20
2018-07-13T13:49:58.432Z,5.43
2018-07-13T13:52:26.733Z,5.23
2018-07-13T13:54:55.013Z,5.07
2018-07-13T13:57:23.345Z,5.53
2018-07-13T13:59:51.671Z,3.93
2018-07-13T14:02:19.921Z,4.83
2018-07-13T14:04:48.158Z,5.20
2018-07-13T14:07:16.473Z,4.80
2018-07-13T14:09:44.713Z,5.37
2018-07-13T14:12:13.117Z,5.00
2018-07-13T14:14:41.336Z,5.30
2018-07-13T14:17:10.705Z,5.70
2018-07-13T14:19:40.004Z,5.40
2018-07-13T14:22:09.308Z,4.60
2018-07-13T14:24:37.649Z,5.17
2018-07-13T14:27:05.943Z,4.50
2018-07-13T14:29:34.193Z,5.50
2018-07-13T14:32:02.481Z,4.50
2018-07-13T14:34:30.807Z,4.47
2018-07-13T14:36:59.081Z,4.50
2018-07-13T14:39:27.337Z,3.80
2018-07-13T14:41:55.635Z,4.00
2018-07-13T14:44:23.905Z,4.00
2018-07-13T14:46:52.205Z,3.83
2018-07-13T14:49:20.470Z,4.60
2018-07-13T14:51:48.739Z,4.40
2018-07-13T14:54:17.060Z,3.90
2018-07-13T14:56:45.325Z,4.30
2018-07-13T14:59:13.612Z,3.90
2018-07-13T15:01:41.864Z,5.03
2018-07-13T15:04:12.300Z,4.40
2018-07-13T15:06:40.705Z,3.67
2018-07-13T15:09:08.809Z,4.60
2018-07-13T15:11:37.133Z,4.00
2018-07-13T15:14:05.438Z,3.43
2018-07-13T15:16:33.787Z,4.20
2018-07-13T15:19:02.076Z,3.17
2018-07-13T15:21:30.352Z,3.53
2018-07-13T15:23:58.685Z,3.67
2018-07-13T15:26:26.961Z,4.40
2018-07-13T15:28:55.263Z,4.73
2018-07-13T15:31:23.525Z,3.40
2018-07-13T15:33:51.849Z,3.47
2018-07-13T15:36:20.109Z,3.03
2018-07-13T15:38:48.361Z,3.13
2018-07-13T15:41:16.659Z,4.03
2018-07-13T15:43:45.232Z,3.97
2018-07-13T15:46:13.554Z,3.43
2018-07-13T15:48:41.972Z,3.17
2018-07-13T15:51:10.276Z,3.47
2018-07-13T15:53:38.624Z,3.50
2018-07-13T15:56:07.158Z,3.17
2018-07-13T15:58:35.510Z,3.70
2018-07-13T16:01:03.773Z,3.33
2018-07-13T16:03:32.048Z,3.97
2018-07-13T16:06:10.006Z,3.47
2018-07-13T16:08:39.305Z,3.67
2018-07-13T16:11:07.577Z,4.07
2018-07-13T16:13:35.938Z,4.30
2018-07-13T16:16:06.307Z,3.50
2018-07-13T16:18:34.629Z,4.00
2018-07-13T16:21:02.957Z,4.20
2018-07-13T16:23:31.221Z,5.00
2018-07-13T16:25:59.526Z,4.33
2018-07-13T16:28:27.802Z,4.20
2018-07-13T16:30:56.103Z,4.73
2018-07-13T16:33:24.349Z,4.50
2018-07-13T16:35:52.613Z,4.70
2018-07-13T16:38:20.905Z,5.27
2018-07-13T16:40:49.156Z,5.30
2018-07-13T16:43:17.421Z,5.40
2018-07-13T16:45:45.697Z,4.83
2018-07-13T16:48:13.969Z,5.13
2018-07-13T16:50:42.354Z,5.60
2018-07-13T16:53:10.529Z,4.33
2018-07-13T16:55:38.849Z,5.40
2018-07-13T16:58:07.162Z,5.37
2018-07-13T17:00:35.430Z,5.10
2018-07-13T17:03:03.766Z,5.87
2018-07-13T17:05:31.974Z,4.30
2018-07-13T17:08:00.242Z,5.30
2018-07-13T17:10:28.493Z,5.30
2018-07-13T17:12:56.775Z,4.73
2018-07-13T17:15:25.034Z,5.70
2018-07-13T17:17:53.327Z,4.40
2018-07-13T17:20:22.692Z,4.90
2018-07-13T17:22:50.936Z,5.57
2018-07-13T17:25:19.186Z,5.17
2018-07-13T17:27:48.521Z,6.10
2018-07-13T17:30:16.817Z,4.60
2018-07-13T17:32:45.083Z,5.30
2018-07-13T17:35:13.350Z,4.50
2018-07-13T17:37:41.573Z,5.13
2018-07-13T17:40:10.841Z,4.80
2018-07-13T17:42:39.139Z,5.50
2018-07-13T17:45:07.397Z,5.53
2018-07-13T17:47:35.757Z,5.50
2018-07-13T17:50:04.112Z,6.33
2018-07-13T17:52:32.421Z,6.30
2018-07-13T17:55:01.805Z,6.30
2018-07-13T17:57:31.180Z,6.75
2018-07-13T17:59:59.481Z,6.40
2018-07-13T18:02:27.743Z,5.90
2018-07-13T18:04:56.021Z,5.47
2018-07-13T18:07:24.281Z,5.50
2018-07-13T18:09:52.576Z,4.90
2018-07-13T18:12:20.913Z,5.73
2018-07-13T18:14:49.342Z,6.20
2018-07-13T18:17:17.564Z,5.67
2018-07-13T18:19:45.865Z,5.20
2018-07-13T18:22:14.149Z,5.33
2018-07-13T18:24:42.389Z,5.50
2018-07-13T18:27:10.668Z,5.63
2018-07-13T18:29:38.909Z,4.83
2018-07-13T18:32:07.460Z,5.77
2018-07-13T18:34:35.731Z,4.60
2018-07-13T18:37:04.001Z,5.10
2018-07-13T18:39:33.313Z,5.10
2018-07-13T18:42:02.630Z,5.70
2018-07-13T18:44:31.904Z,6.07
2018-07-13T18:47:01.174Z,6.60
2018-07-13T18:49:29.414Z,7.73
2018-07-13T18:51:57.829Z,5.97
2018-07-13T18:54:26.146Z,5.50
2018-07-13T18:56:54.438Z,5.73
2018-07-13T18:59:22.728Z,6.67
2018-07-13T19:01:51.028Z,5.80
2018-07-13T19:04:19.301Z,6.20
2018-07-13T19:06:47.577Z,5.43
2018-07-13T19:09:15.838Z,5.60
2018-07-13T19:11:44.136Z,6.53
2018-07-13T19:14:12.393Z,7.30
2018-07-13T19:16:40.726Z,6.03
2018-07-13T19:19:08.976Z,5.73
2018-07-13T19:21:37.394Z,5.33
2018-07-13T19:24:05.693Z,5.60
2018-07-13T19:26:34.973Z,5.10
2018-07-13T19:29:03.324Z,5.33
2018-07-13T19:31:31.646Z,5.10
2018-07-13T19:33:59.909Z,6.20
2018-07-13T19:36:28.176Z,5.17
2018-07-13T19:38:56.445Z,5.90
2018-07-13T19:41:24.689Z,4.67
2018-07-13T19:43:52.981Z,8.07
2018-07-13T19:46:21.236Z,6.47
2018-07-13T19:48:49.608Z,5.73
2018-07-13T19:51:17.857Z,5.37
2018-07-13T19:53:46.172Z,6.00
2018-07-13T19:56:14.425Z,8.67
2018-07-13T19:58:42.723Z,5.70
2018-07-13T20:01:13.089Z,6.37
2018-07-13T20:03:41.376Z,6.30
2018-07-13T20:06:09.676Z,4.90
2018-07-13T20:08:37.976Z,5.17
2018-07-13T20:11:07.361Z,5.60
2018-07-13T20:13:35.589Z,6.33
2018-07-13T20:16:03.863Z,5.77
2018-07-13T20:18:32.153Z,5.40
2018-07-13T20:21:02.456Z,6.50
2018-07-13T20:23:30.757Z,5.47
2018-07-13T20:25:59.009Z,6.33
2018-07-13T20:28:27.269Z,6.17
2018-07-13T20:30:55.558Z,6.20
2018-07-13T20:33:23.893Z,6.20
2018-07-13T20:35:52.109Z,6.03
2018-07-13T20:38:20.353Z,6.10
2018-07-13T20:40:48.623Z,6.60
2018-07-13T20:43:16.873Z,6.20
2018-07-13T20:45:45.157Z,5.80
2018-07-13T20:48:13.414Z,5.80
2018-07-13T20:50:41.737Z,7.10
2018-07-13T20:53:10.180Z,6.10
2018-07-13T20:55:38.485Z,5.27
2018-07-13T20:58:07.193Z,6.00
2018-07-13T21:00:35.481Z,6.00
2018-07-13T21:03:04.187Z,6.87
2018-07-13T21:05:32.401Z,5.97
2018-07-13T21:08:01.733Z,5.70
2018-07-13T21:10:30.046Z,6.50
2018-07-13T21:12:59.345Z,6.23
2018-07-13T21:15:27.646Z,5.67
2018-07-13T21:17:55.893Z,7.23
2018-07-13T21:20:25.186Z,6.03
2018-07-13T21:22:53.477Z,5.60
2018-07-13T21:25:21.741Z,6.50
2018-07-13T21:27:50.046Z,5.80
2018-07-13T21:30:18.343Z,5.43
2018-07-13T21:32:46.637Z,5.70
2018-07-13T21:35:15.916Z,5.53
2018-07-13T21:37:44.193Z,5.83
2018-07-13T21:40:12.509Z,6.17
2018-07-13T21:42:40.926Z,5.60
2018-07-13T21:45:09.314Z,5.50
2018-07-13T21:47:37.588Z,5.77
2018-07-13T21:50:06.876Z,5.33
2018-07-13T21:52:36.217Z,6.00
2018-07-13T21:55:04.553Z,6.20
2018-07-13T21:57:32.936Z,6.73
2018-07-13T22:00:01.185Z,6.00
2018-07-13T22:02:29.444Z,6.80
2018-07-13T22:04:57.745Z,6.13
2018-07-13T22:07:27.013Z,6.47
2018-07-13T22:09:55.285Z,6.60
2018-07-13T22:12:23.541Z,5.97
2018-07-13T22:14:51.898Z,6.57
2018-07-13T22:17:20.156Z,6.10
2018-07-13T22:19:48.433Z,6.80
2018-07-13T22:22:16.680Z,5.97
2018-07-13T22:24:44.984Z,7.40
2018-07-13T22:27:13.249Z,6.57
2018-07-13T22:29:41.545Z,6.10
2018-07-13T22:32:09.805Z,6.70
2018-07-13T22:34:38.093Z,7.10
2018-07-13T22:37:06.355Z,6.93
2018-07-13T22:39:34.621Z,6.90
2018-07-13T22:42:02.891Z,7.33
2018-07-13T22:44:31.174Z,6.80
2018-07-13T22:46:59.420Z,7.07
2018-07-13T22:49:27.726Z,7.50
2018-07-13T22:51:55.976Z,7.70
2018-07-13T22:54:24.264Z,7.13
2018-07-13T22:56:53.597Z,7.10
2018-07-13T22:59:21.876Z,7.17
2018-07-13T23:01:51.189Z,6.80
2018-07-13T23:04:26.235Z,6.87
2018-07-13T23:06:56.061Z,6.50
2018-07-13T23:09:28.229Z,6.10
2018-07-13T23:11:57.595Z,7.30
2018-07-13T23:14:36.464Z,6.03
2018-07-13T23:17:04.761Z,5.83
2018-07-13T23:19:35.116Z,5.47
2018-07-13T23:22:04.462Z,5.70
2018-07-13T23:24:32.778Z,5.77
2018-07-13T23:27:10.506Z,6.07
2018-07-13T23:29:38.889Z,5.70
2018-07-13T23:32:07.187Z,5.80
2018-07-13T23:34:35.470Z,5.13
2018-07-13T23:37:04.829Z,5.70
2018-07-13T23:39:33.129Z,5.67
2018-07-13T23:42:01.486Z,5.37
2018-07-13T23:44:31.812Z,5.40
2018-07-13T23:47:00.106Z,4.00
2018-07-13T23:49:28.336Z,4.37
2018-07-13T23:51:56.609Z,4.33
2018-07-13T23:54:24.877Z,4.47
2018-07-13T23:56:53.205Z,4.70
2018-07-13T23:59:21.471Z,4.43
